Nefterudovoz-29m — UIMI — position and weather

sailwx.info

Track history (hours):
 
Tides and Currents Weather Stations Pressure Air Temp Water Temp Dewpoint Dewpoint Depression Visibility Wind Speed Wind Dir Waves Ship Positions

Nefterudovoz-29m

Last reported at 2014-Sep-01 16:27 UTC. Time now 2014-Sep-19 23:55 UTC.
Position N 44°48' E 035°48'.
Warning: this ship's position is 18 days out of date.

Length 119 m; draft 3.5 m.

Type: Cargo ship. MMSI: 273345300.

Date/timePositionNaut miles runAvg speedWind from/ knotsBaromVisibWave heightAir tempDewpointWater temp
2014-Sep-01 16:27N 44°48' E 035°48'6 6.3
2014-Sep-01 15:33N 44°46' E 035°40'6 6.2
2014-Sep-01 14:33N 44°45' E 035°32'8 6.2
2014-Sep-01 13:20N 44°43' E 035°22'5 6.1
2014-Sep-01 12:32N 44°41' E 035°15'6 6.1
2014-Sep-01 11:31N 44°39' E 035°07'7 6.2
2014-Sep-01 10:26N 44°37' E 034°58'6 6.3
2014-Sep-01 09:34N 44°36' E 034°51'6 6.1
2014-Sep-01 08:33N 44°34' E 034°42'6 5.7
2014-Sep-01 07:34N 44°32' E 034°35'6 5.6
2014-Sep-01 06:33N 44°29' E 034°28'6 5.6
2014-Sep-01 05:33N 44°26' E 034°22'6 5.5
2014-Sep-01 04:33N 44°22' E 034°16'5 5.2
2014-Sep-01 03:33N 44°18' E 034°11'5 5.0
2014-Sep-01 02:32N 44°17' E 034°04'152 5.8
2014-Aug-31 00:33N 45°57' E 031°23'20 6.6
2014-Aug-30 21:33N 46°15' E 031°11'7 6.8
2014-Aug-30 20:30N 46°22' E 031°07'9 6.6
2014-Aug-30 19:13N 46°30' E 031°04'5 7.0
2014-Aug-30 18:34N 46°34' E 031°05'7 6.5
2014-Aug-30 17:33N 46°35' E 031°15'7 6.8
2014-Aug-30 16:33N 46°35' E 031°24'13 6.4
2014-Aug-30 14:29N 46°36' E 031°44'12 5.5
2014-Aug-30 12:21N 46°44' E 031°55'5 6.1
2014-Aug-30 11:33N 46°49' E 031°54'7 6.9
2014-Aug-30 10:33N 46°54' E 032°01'3 2.9
2014-Aug-30 09:33N 46°57' E 031°60'0 0.0
2014-Aug-30 08:33N 46°57' E 031°60'0 0.0
2014-Aug-30 07:33N 46°57' E 031°60'0 0.0
2014-Aug-30 06:33N 46°57' E 031°60'0 0.0
2014-Aug-30 05:33N 46°57' E 031°60'0 0.0
2014-Aug-30 04:33N 46°57' E 031°60'0 0.0
2014-Aug-30 03:33N 46°57' E 031°60'0 0.0
2014-Aug-30 02:33N 46°57' E 031°60'0 0.0
2014-Aug-30 01:33N 46°57' E 031°60'0 0.0
2014-Aug-30 00:33N 46°57' E 031°60'0 0.0
2014-Aug-29 23:33N 46°57' E 031°60'0 0.0
2014-Aug-29 22:33N 46°57' E 031°60'0 0.0
2014-Aug-29 21:33N 46°57' E 031°60'0 0.0
2014-Aug-29 20:33N 46°57' E 031°60'0 0.0
2014-Aug-29 19:33N 46°57' E 031°60'0 0.0
2014-Aug-29 18:33N 46°57' E 031°60'0 0.0
2014-Aug-29 17:33N 46°57' E 031°60'0 0.0
2014-Aug-29 16:33N 46°57' E 031°60'0 0.0
2014-Aug-29 15:33N 46°57' E 031°60'0 0.0
2014-Aug-29 14:33N 46°57' E 031°60'0 0.0
2014-Aug-29 13:33N 46°57' E 031°60'0 0.0
2014-Aug-29 12:33N 46°57' E 031°60'0 0.0
2014-Aug-29 11:33N 46°57' E 031°60'4 4.3
2014-Aug-29 10:33N 46°53' E 031°59'7 7.2
2014-Aug-29 09:33N 46°47' E 031°53'6 6.2
2014-Aug-29 08:33N 46°41' E 031°56'7 6.7
2014-Aug-29 07:33N 46°36' E 031°49'121 3.4
2014-Aug-27 20:09N 44°46' E 030°36'4 6.9
2014-Aug-27 19:30N 44°42' E 030°35'7 7.0
2014-Aug-27 18:33N 44°36' E 030°32'8 7.3
2014-Aug-27 17:31N 44°28' E 030°29'219 6.4
2014-Aug-26 07:29N 40°60' E 028°60'4 4.0
2014-Aug-26 06:32N 40°56' E 028°60'6 6.0
2014-Aug-26 05:29N 40°50' E 028°58'1 0.6
2014-Aug-26 04:24N 40°49' E 028°58'2 2.4
2014-Aug-26 03:30N 40°48' E 029°00'1 0.8
2014-Aug-26 02:33N 40°49' E 029°01'3 3.2
2014-Aug-26 01:28N 40°47' E 028°57'1 0.9
2014-Aug-26 00:33N 40°46' E 028°57'1 1.1
2014-Aug-25 23:33N 40°46' E 028°55'1 1.2
2014-Aug-25 22:31N 40°47' E 028°56'1 0.6
2014-Aug-25 21:33N 40°47' E 028°56'1 1.2
2014-Aug-25 20:25N 40°48' E 028°57'1 1.3
2014-Aug-25 19:29N 40°49' E 028°58'1 1.1
2014-Aug-25 18:32N 40°49' E 028°60'2 2.0
2014-Aug-25 17:33N 40°47' E 029°01'1 1.0
2014-Aug-25 16:31N 40°48' E 029°02'1 1.1
2014-Aug-25 15:33N 40°48' E 029°03'1 1.1
2014-Aug-25 14:33N 40°49' E 029°04'5 5.1
2014-Aug-25 13:32N 40°47' E 029°10'7 7.3
2014-Aug-25 12:33N 40°45' E 029°19'10 0.3
2014-Aug-24 04:33N 40°46' E 029°33'4 1.1
2014-Aug-24 00:33N 40°46' E 029°38'0 0.0
2014-Aug-23 23:16N 40°46' E 029°38'0 0.0
2014-Aug-23 22:24N 40°46' E 029°38'2 2.8
2014-Aug-23 21:32N 40°46' E 029°35'5 5.3
2014-Aug-23 20:32N 40°45' E 029°28'6 6.2
2014-Aug-23 19:32N 40°45' E 029°20'  
Track history (hours):
 
Tides and Currents Weather Stations Pressure Air Temp Water Temp Dewpoint Dewpoint Depression Visibility Wind Speed Wind Dir Waves Ship Positions

Nefterudovoz-29m

Last reported at 2014-Sep-01 16:27 UTC. Time now 2014-Sep-19 23:55 UTC.
Position N 44°48' E 035°48'.
Warning: this ship's position is 18 days out of date.

Length 119 m; draft 3.5 m.

Type: Cargo ship. MMSI: 273345300.

Date/timePositionNaut miles runAvg speedWind from/ knotsBaromVisibWave heightAir tempDewpointWater temp
2014-Sep-01 16:27N 44°48' E 035°48'6 6.3
2014-Sep-01 15:33N 44°46' E 035°40'6 6.2
2014-Sep-01 14:33N 44°45' E 035°32'8 6.2
2014-Sep-01 13:20N 44°43' E 035°22'5 6.1
2014-Sep-01 12:32N 44°41' E 035°15'6 6.1
2014-Sep-01 11:31N 44°39' E 035°07'7 6.2
2014-Sep-01 10:26N 44°37' E 034°58'6 6.3
2014-Sep-01 09:34N 44°36' E 034°51'6 6.1
2014-Sep-01 08:33N 44°34' E 034°42'6 5.7
2014-Sep-01 07:34N 44°32' E 034°35'6 5.6
2014-Sep-01 06:33N 44°29' E 034°28'6 5.6
2014-Sep-01 05:33N 44°26' E 034°22'6 5.5
2014-Sep-01 04:33N 44°22' E 034°16'5 5.2
2014-Sep-01 03:33N 44°18' E 034°11'5 5.0
2014-Sep-01 02:32N 44°17' E 034°04'152 5.8
2014-Aug-31 00:33N 45°57' E 031°23'20 6.6
2014-Aug-30 21:33N 46°15' E 031°11'7 6.8
2014-Aug-30 20:30N 46°22' E 031°07'9 6.6
2014-Aug-30 19:13N 46°30' E 031°04'5 7.0
2014-Aug-30 18:34N 46°34' E 031°05'7 6.5
2014-Aug-30 17:33N 46°35' E 031°15'7 6.8
2014-Aug-30 16:33N 46°35' E 031°24'13 6.4
2014-Aug-30 14:29N 46°36' E 031°44'12 5.5
2014-Aug-30 12:21N 46°44' E 031°55'5 6.1
2014-Aug-30 11:33N 46°49' E 031°54'7 6.9
2014-Aug-30 10:33N 46°54' E 032°01'3 2.9
2014-Aug-30 09:33N 46°57' E 031°60'0 0.0
2014-Aug-30 08:33N 46°57' E 031°60'0 0.0
2014-Aug-30 07:33N 46°57' E 031°60'0 0.0
2014-Aug-30 06:33N 46°57' E 031°60'0 0.0
2014-Aug-30 05:33N 46°57' E 031°60'0 0.0
2014-Aug-30 04:33N 46°57' E 031°60'0 0.0
2014-Aug-30 03:33N 46°57' E 031°60'0 0.0
2014-Aug-30 02:33N 46°57' E 031°60'0 0.0
2014-Aug-30 01:33N 46°57' E 031°60'0 0.0
2014-Aug-30 00:33N 46°57' E 031°60'0 0.0
2014-Aug-29 23:33N 46°57' E 031°60'0 0.0
2014-Aug-29 22:33N 46°57' E 031°60'0 0.0
2014-Aug-29 21:33N 46°57' E 031°60'0 0.0
2014-Aug-29 20:33N 46°57' E 031°60'0 0.0
2014-Aug-29 19:33N 46°57' E 031°60'0 0.0
2014-Aug-29 18:33N 46°57' E 031°60'0 0.0
2014-Aug-29 17:33N 46°57' E 031°60'0 0.0
2014-Aug-29 16:33N 46°57' E 031°60'0 0.0
2014-Aug-29 15:33N 46°57' E 031°60'0 0.0
2014-Aug-29 14:33N 46°57' E 031°60'0 0.0
2014-Aug-29 13:33N 46°57' E 031°60'0 0.0
2014-Aug-29 12:33N 46°57' E 031°60'0 0.0
2014-Aug-29 11:33N 46°57' E 031°60'4 4.3
2014-Aug-29 10:33N 46°53' E 031°59'7 7.2
2014-Aug-29 09:33N 46°47' E 031°53'6 6.2
2014-Aug-29 08:33N 46°41' E 031°56'7 6.7
2014-Aug-29 07:33N 46°36' E 031°49'121 3.4
2014-Aug-27 20:09N 44°46' E 030°36'4 6.9
2014-Aug-27 19:30N 44°42' E 030°35'7 7.0
2014-Aug-27 18:33N 44°36' E 030°32'8 7.3
2014-Aug-27 17:31N 44°28' E 030°29'219 6.4
2014-Aug-26 07:29N 40°60' E 028°60'4 4.0
2014-Aug-26 06:32N 40°56' E 028°60'6 6.0
2014-Aug-26 05:29N 40°50' E 028°58'1 0.6
2014-Aug-26 04:24N 40°49' E 028°58'2 2.4
2014-Aug-26 03:30N 40°48' E 029°00'1 0.8
2014-Aug-26 02:33N 40°49' E 029°01'3 3.2
2014-Aug-26 01:28N 40°47' E 028°57'1 0.9
2014-Aug-26 00:33N 40°46' E 028°57'1 1.1
2014-Aug-25 23:33N 40°46' E 028°55'1 1.2
2014-Aug-25 22:31N 40°47' E 028°56'1 0.6
2014-Aug-25 21:33N 40°47' E 028°56'1 1.2
2014-Aug-25 20:25N 40°48' E 028°57'1 1.3
2014-Aug-25 19:29N 40°49' E 028°58'1 1.1
2014-Aug-25 18:32N 40°49' E 028°60'2 2.0
2014-Aug-25 17:33N 40°47' E 029°01'1 1.0
2014-Aug-25 16:31N 40°48' E 029°02'1 1.1
2014-Aug-25 15:33N 40°48' E 029°03'1 1.1
2014-Aug-25 14:33N 40°49' E 029°04'5 5.1
2014-Aug-25 13:32N 40°47' E 029°10'7 7.3
2014-Aug-25 12:33N 40°45' E 029°19'10 0.3
2014-Aug-24 04:33N 40°46' E 029°33'4 1.1
2014-Aug-24 00:33N 40°46' E 029°38'0 0.0
2014-Aug-23 23:16N 40°46' E 029°38'0 0.0
2014-Aug-23 22:24N 40°46' E 029°38'2 2.8
2014-Aug-23 21:32N 40°46' E 029°35'5 5.3
2014-Aug-23 20:32N 40°45' E 029°28'6 6.2
2014-Aug-23 19:32N 40°45' E 029°20'  

Dump ship's entire track history